Skip to main content

Lisboa, Tapada da Ajuda

ID 1210762 · 38.7096, -9.1828 map

Latest reading · 2026-05-09 19:00 (Europe/Lisbon)

Temperature
16.0 °C
Humidity
77 %
Pressure
Precipitation
0.0 mm
Radiation
1,063 W/m²
Wind speed
15.1 km/h
Wind direction
SW · South-west

24-hour history

Time (Europe/Lisbon) Temp Humidity Pressure Rain Wind Dir
2026-05-09 19:00 16.0 °C 77 % 0.0 mm 15.1 km/h SW
2026-05-09 18:00 15.0 °C 89 % 0.0 mm 10.4 km/h SW
2026-05-09 17:00 13.8 °C 93 % 4.8 mm 11.9 km/h SW
2026-05-09 16:00 18.5 °C 67 % 0.1 mm 15.1 km/h SW
2026-05-09 15:00 18.8 °C 67 % 0.0 mm 18.7 km/h SW
2026-05-09 14:00 18.4 °C 65 % 0.0 mm 20.9 km/h SW
2026-05-09 13:00 18.2 °C 65 % 0.0 mm 21.6 km/h SW
2026-05-09 12:00 17.3 °C 69 % 0.0 mm 18.4 km/h SW
2026-05-09 11:00 16.0 °C 76 % 0.0 mm 13.7 km/h S
2026-05-09 10:00 15.3 °C 91 % 0.0 mm 10.8 km/h S
2026-05-09 09:00 13.5 °C 100 % 0.0 mm 8.3 km/h S
2026-05-09 08:00 12.3 °C 100 % 0.0 mm 3.2 km/h SE
2026-05-09 07:00 12.0 °C 100 % 1.2 mm 2.5 km/h SW
2026-05-09 06:00 12.0 °C 100 % 6.6 mm 12.2 km/h SW
2026-05-09 05:00 12.3 °C 100 % 0.1 mm 3.6 km/h NW
2026-05-09 04:00 12.5 °C 100 % 0.5 mm 6.1 km/h S
2026-05-09 03:00 11.8 °C 100 % 13.7 mm 6.8 km/h S
2026-05-09 02:00 11.6 °C 98 % 11.1 mm 4.0 km/h E
2026-05-09 01:00 14.8 °C 77 % 0.2 mm 11.5 km/h SE
2026-05-09 00:00 15.1 °C 75 % 0.0 mm 14.4 km/h S
2026-05-08 23:00 15.6 °C 74 % 0.0 mm 15.8 km/h S
2026-05-08 22:00 15.5 °C 80 % 0.2 mm 11.5 km/h SE
2026-05-08 21:00 16.3 °C 71 % 0.0 mm 11.5 km/h SE
2026-05-08 20:00 16.4 °C 67 % 0.0 mm 14.8 km/h S